createdAt,value
2023-01-02T00:01:05.355Z,13.20
2023-01-02T00:03:32.557Z,13.20
2023-01-02T00:06:03.662Z,13.20
2023-01-02T00:08:30.770Z,13.20
2023-01-02T00:10:57.941Z,13.20
2023-01-02T00:13:25.106Z,13.10
2023-01-02T00:15:52.802Z,13.10
2023-01-02T00:18:19.906Z,13.10
2023-01-02T00:20:46.876Z,13.10
2023-01-02T00:24:27.785Z,13.10
2023-01-02T00:26:54.751Z,13.10
2023-01-02T00:29:21.719Z,13.20
2023-01-02T00:31:48.719Z,13.20
2023-01-02T00:34:15.759Z,13.20
2023-01-02T00:36:42.787Z,13.20
2023-01-02T00:39:09.761Z,13.20
2023-01-02T00:41:36.759Z,13.20
2023-01-02T00:44:03.715Z,13.20
2023-01-02T00:46:30.760Z,13.20
2023-01-02T00:48:57.741Z,13.20
2023-01-02T00:51:24.779Z,13.20
2023-01-02T00:53:51.738Z,13.10
2023-01-02T00:56:18.902Z,13.20
2023-01-02T00:58:47.073Z,13.10
2023-01-02T01:01:14.139Z,13.10
2023-01-02T01:03:43.503Z,13.10
2023-01-02T01:06:11.184Z,13.10
2023-01-02T01:08:39.163Z,13.10
2023-01-02T01:11:08.239Z,13.10
2023-01-02T01:13:35.375Z,13.10
2023-01-02T01:16:14.542Z,13.10
2023-01-02T01:18:42.130Z,13.00
2023-01-02T01:21:10.664Z,13.00
2023-01-02T01:23:37.672Z,13.00
2023-01-02T01:26:06.734Z,12.90
2023-01-02T01:28:34.157Z,12.90
2023-01-02T01:31:06.891Z,12.90
2023-01-02T01:33:36.183Z,13.00
2023-01-02T01:36:09.064Z,13.00
2023-01-02T01:38:36.069Z,13.00
2023-01-02T01:41:05.296Z,13.00
2023-01-02T01:43:56.317Z,13.00
2023-01-02T01:46:31.909Z,13.00
2023-01-02T01:49:29.089Z,12.90
2023-01-02T01:52:02.032Z,12.80
2023-01-02T01:54:47.433Z,12.80
2023-01-02T01:57:46.267Z,12.80
2023-01-02T02:00:13.981Z,12.70
2023-01-02T02:02:44.373Z,12.70
2023-01-02T02:05:15.108Z,12.60
2023-01-02T02:07:51.755Z,12.60
2023-01-02T02:10:18.950Z,12.60
2023-01-02T02:12:45.932Z,12.50
2023-01-02T02:15:18.269Z,12.50
2023-01-02T02:18:02.755Z,12.50
2023-01-02T02:20:59.044Z,12.50
2023-01-02T02:24:09.503Z,12.40
2023-01-02T02:26:39.279Z,12.50
2023-01-02T02:29:39.116Z,12.50
2023-01-02T02:32:24.184Z,12.50
2023-01-02T02:35:05.335Z,12.50
2023-01-02T02:37:50.343Z,12.60
2023-01-02T02:40:19.985Z,12.60
2023-01-02T02:43:00.342Z,12.70
2023-01-02T02:45:36.963Z,12.70
2023-01-02T02:48:31.121Z,12.70
2023-01-02T02:51:18.909Z,12.70
2023-01-02T02:53:55.901Z,12.80
2023-01-02T02:56:25.135Z,12.80
2023-01-02T02:58:52.918Z,12.80
2023-01-02T03:01:22.593Z,12.70
2023-01-02T03:03:52.526Z,12.60
2023-01-02T03:06:32.427Z,12.60
2023-01-02T03:09:05.167Z,12.50
2023-01-02T03:12:25.275Z,12.50
2023-01-02T03:15:02.168Z,12.60
2023-01-02T03:17:46.707Z,12.50
2023-01-02T03:20:17.690Z,12.50
2023-01-02T03:22:50.298Z,12.50
2023-01-02T03:25:18.193Z,12.50
2023-01-02T03:27:48.702Z,12.40
2023-01-02T03:30:22.075Z,12.40
2023-01-02T03:33:06.306Z,12.40
2023-01-02T03:35:37.903Z,12.40
2023-01-02T03:38:12.573Z,12.40
2023-01-02T03:40:44.705Z,12.40
2023-01-02T03:43:31.361Z,12.40
2023-01-02T03:46:04.363Z,12.40
2023-01-02T03:48:39.296Z,12.50
2023-01-02T03:51:06.854Z,12.50
2023-01-02T03:53:35.737Z,12.50
2023-01-02T03:56:09.552Z,12.50
2023-01-02T03:59:06.017Z,12.50
2023-01-02T04:01:55.038Z,12.50
2023-01-02T04:04:50.703Z,12.40
2023-01-02T04:08:02.645Z,12.40
2023-01-02T04:10:30.463Z,12.40
2023-01-02T04:13:02.753Z,12.40
2023-01-02T04:15:33.716Z,12.40
2023-01-02T04:18:07.244Z,12.40
2023-01-02T04:20:39.045Z,12.30
2023-01-02T04:23:18.199Z,12.30
2023-01-02T04:26:12.353Z,12.30
2023-01-02T04:28:39.497Z,12.20
2023-01-02T04:31:13.939Z,12.10
2023-01-02T04:33:47.528Z,12.10
2023-01-02T04:36:16.279Z,12.20
2023-01-02T04:38:45.430Z,12.10
2023-01-02T04:41:15.943Z,12.10
2023-01-02T04:43:43.018Z,12.10
2023-01-02T04:46:10.043Z,12.10
2023-01-02T04:48:37.109Z,12.10
2023-01-02T04:51:04.229Z,12.10
2023-01-02T04:53:31.233Z,12.00
2023-01-02T04:55:58.306Z,12.10
2023-01-02T04:58:26.907Z,12.10
2023-01-02T05:00:54.520Z,12.00
2023-01-02T05:03:21.658Z,12.10
2023-01-02T05:05:48.825Z,12.10
2023-01-02T05:08:16.543Z,12.10
2023-01-02T05:10:43.740Z,12.10
2023-01-02T05:13:10.799Z,12.10
2023-01-02T05:15:37.862Z,12.10
2023-01-02T05:18:04.986Z,12.10
2023-01-02T05:20:31.958Z,12.10
2023-01-02T05:23:17.333Z,12.20
2023-01-02T05:25:44.390Z,12.20
2023-01-02T05:28:11.387Z,12.20
2023-01-02T05:30:39.465Z,12.20
2023-01-02T05:33:06.503Z,12.20
2023-01-02T05:35:34.044Z,12.20
2023-01-02T05:38:01.758Z,12.20
2023-01-02T05:40:28.837Z,12.20
2023-01-02T05:42:55.858Z,12.30
2023-01-02T05:45:23.075Z,12.30
2023-01-02T05:47:50.281Z,12.20
2023-01-02T05:50:17.263Z,12.30
2023-01-02T05:52:46.054Z,12.40
2023-01-02T05:55:13.653Z,12.40
2023-01-02T05:57:42.083Z,12.40
2023-01-02T06:00:09.667Z,12.40
2023-01-02T06:02:43.039Z,12.40
2023-01-02T06:05:14.133Z,12.50
2023-01-02T06:07:41.128Z,12.50
2023-01-02T06:10:08.624Z,12.40
2023-01-02T06:12:35.529Z,12.50
2023-01-02T06:15:02.503Z,12.50
2023-01-02T06:17:29.497Z,12.50
2023-01-02T06:19:56.432Z,12.50
2023-01-02T06:22:23.398Z,12.60
2023-01-02T06:24:50.372Z,12.50
2023-01-02T06:27:17.317Z,12.60
2023-01-02T06:29:44.311Z,12.60
2023-01-02T06:32:11.335Z,12.70
2023-01-02T06:34:38.356Z,12.70
2023-01-02T06:37:09.668Z,12.70
2023-01-02T06:39:37.342Z,12.70
2023-01-02T06:42:04.328Z,12.70
2023-01-02T06:44:31.377Z,12.80
2023-01-02T06:46:58.344Z,12.80
2023-01-02T06:49:25.329Z,12.80
2023-01-02T06:51:52.911Z,12.80
2023-01-02T06:54:19.889Z,12.90
2023-01-02T06:56:46.846Z,12.80
2023-01-02T06:59:14.127Z,12.80
2023-01-02T07:01:41.160Z,12.80
2023-01-02T07:04:16.671Z,12.80
2023-01-02T07:06:43.787Z,12.80
2023-01-02T07:09:10.830Z,12.80
2023-01-02T07:11:38.949Z,12.80
2023-01-02T07:14:05.945Z,12.90
2023-01-02T07:16:33.021Z,12.90
2023-01-02T07:19:00.086Z,12.80
2023-01-02T07:21:27.113Z,12.80
2023-01-02T07:27:59.669Z,12.80
2023-01-02T07:30:26.669Z,12.70
2023-01-02T07:32:53.946Z,12.70
2023-01-02T07:35:20.947Z,12.70
2023-01-02T07:37:47.960Z,12.80
2023-01-02T07:40:14.980Z,12.80
2023-01-02T07:42:41.923Z,12.80
2023-01-02T07:45:09.448Z,12.80
2023-01-02T07:47:36.426Z,12.80
2023-01-02T07:50:03.420Z,12.90
2023-01-02T07:52:30.403Z,12.90
2023-01-02T07:54:57.368Z,13.00
2023-01-02T07:57:24.345Z,13.00
2023-01-02T07:59:51.702Z,12.90
2023-01-02T08:02:18.770Z,13.00
2023-01-02T08:04:45.835Z,13.00
2023-01-02T08:07:12.824Z,13.00
2023-01-02T08:09:39.890Z,13.00
2023-01-02T08:12:06.932Z,13.00
2023-01-02T08:14:33.981Z,12.90
2023-01-02T08:17:00.988Z,12.90
2023-01-02T08:19:28.043Z,12.90
2023-01-02T08:21:55.025Z,12.90
2023-01-02T08:24:22.031Z,12.80
2023-01-02T08:26:49.073Z,12.80
2023-01-02T08:29:16.157Z,12.70
2023-01-02T08:31:44.104Z,12.70
2023-01-02T08:34:14.717Z,12.70
2023-01-02T08:36:42.610Z,12.70
2023-01-02T08:39:09.614Z,12.60
2023-01-02T08:41:38.661Z,12.60
2023-01-02T08:44:06.967Z,12.60
2023-01-02T08:46:42.328Z,12.60
2023-01-02T08:49:10.896Z,12.60
2023-01-02T08:51:37.868Z,12.60
2023-01-02T08:54:04.878Z,12.60
2023-01-02T08:56:32.790Z,12.60
2023-01-02T09:00:13.277Z,12.60
2023-01-02T09:02:40.395Z,12.60
2023-01-02T09:05:07.758Z,12.60
2023-01-02T09:07:34.791Z,12.70
2023-01-02T09:10:01.768Z,12.70
2023-01-02T09:12:28.838Z,12.70
2023-01-02T09:14:55.785Z,12.70
2023-01-02T09:17:22.842Z,12.70
2023-01-02T09:19:50.189Z,12.80
2023-01-02T09:22:17.161Z,12.80
2023-01-02T09:24:44.149Z,12.80
2023-01-02T09:27:11.213Z,12.80
2023-01-02T09:29:38.350Z,12.90
2023-01-02T09:32:05.491Z,13.00
2023-01-02T09:34:32.496Z,13.10
2023-01-02T09:36:59.505Z,13.20
2023-01-02T09:39:32.243Z,13.40
2023-01-02T09:42:01.305Z,13.50
2023-01-02T09:44:44.445Z,13.70
2023-01-02T09:47:11.398Z,13.70
2023-01-02T09:49:52.567Z,13.80
2023-01-02T09:52:36.721Z,13.80
2023-01-02T09:55:04.152Z,13.70
2023-01-02T09:57:38.735Z,13.70
2023-01-02T10:00:26.980Z,13.70
2023-01-02T10:04:09.471Z,13.60
2023-01-02T10:07:04.128Z,13.50
2023-01-02T10:09:36.059Z,13.40
2023-01-02T10:12:14.436Z,13.40
2023-01-02T10:14:48.215Z,13.40
2023-01-02T10:17:17.499Z,13.40
2023-01-02T10:20:10.382Z,13.50
2023-01-02T10:22:42.952Z,13.40
2023-01-02T10:25:20.175Z,13.50
2023-01-02T10:27:52.853Z,13.50
2023-01-02T10:30:21.693Z,13.50
2023-01-02T10:33:10.470Z,13.50
2023-01-02T10:36:10.168Z,13.50
2023-01-02T10:39:04.355Z,13.60
2023-01-02T10:42:00.377Z,13.60
2023-01-02T10:44:56.791Z,13.50
2023-01-02T10:47:39.944Z,13.50
2023-01-02T10:50:22.853Z,13.50
2023-01-02T10:52:52.395Z,13.50
2023-01-02T10:55:43.716Z,13.70
2023-01-02T10:58:23.362Z,13.80
2023-01-02T11:00:52.900Z,14.00
2023-01-02T11:03:25.723Z,14.20
2023-01-02T11:05:55.437Z,15.30
2023-01-02T11:08:23.794Z,14.50
2023-01-02T11:10:51.371Z,14.70
2023-01-02T11:13:21.932Z,14.90
2023-01-02T11:15:59.472Z,15.00
2023-01-02T11:18:29.730Z,15.10
2023-01-02T11:21:05.749Z,15.20
2023-01-02T11:23:48.269Z,15.30
2023-01-02T11:26:25.003Z,15.30
2023-01-02T11:28:54.058Z,15.30
2023-01-02T11:31:24.781Z,15.30
2023-01-02T11:33:52.223Z,15.30
2023-01-02T11:36:24.103Z,15.30
2023-01-02T11:38:56.924Z,15.40
2023-01-02T11:41:49.016Z,15.50
2023-01-02T11:44:26.839Z,15.60
2023-01-02T11:47:54.087Z,15.70
2023-01-02T11:50:50.520Z,15.70
2023-01-02T11:53:26.539Z,15.80
2023-01-02T11:56:36.240Z,15.80
2023-01-02T11:59:03.340Z,15.80
2023-01-02T12:02:02.192Z,15.80
2023-01-02T12:04:29.585Z,15.80
2023-01-02T12:08:01.309Z,15.80
2023-01-02T12:10:47.840Z,15.80
2023-01-02T12:13:58.178Z,15.80
2023-01-02T12:16:38.151Z,15.70
2023-01-02T12:19:13.913Z,15.60
2023-01-02T12:22:14.061Z,15.60
2023-01-02T12:25:33.800Z,15.50
2023-01-02T12:28:34.129Z,15.50
2023-01-02T12:31:20.144Z,15.60
2023-01-02T12:34:15.331Z,15.60
2023-01-02T12:36:45.028Z,15.50
2023-01-02T12:39:20.689Z,15.40
2023-01-02T12:42:06.624Z,15.30
2023-01-02T12:45:24.951Z,15.20
2023-01-02T12:48:21.347Z,15.10
2023-01-02T12:51:05.228Z,15.10
2023-01-02T12:53:40.970Z,15.10
2023-01-02T12:56:35.645Z,15.10
2023-01-02T12:59:36.768Z,15.10
2023-01-02T13:02:15.248Z,15.10
2023-01-02T13:04:50.122Z,15.10
2023-01-02T13:07:39.616Z,15.10
2023-01-02T13:10:12.105Z,15.20
2023-01-02T13:12:39.504Z,15.20
2023-01-02T13:15:19.771Z,15.30
2023-01-02T13:17:49.805Z,15.40
2023-01-02T13:20:23.114Z,15.40
2023-01-02T13:23:36.361Z,15.50
2023-01-02T13:26:07.517Z,15.50
2023-01-02T13:28:41.781Z,15.60
2023-01-02T13:34:05.715Z,15.60
2023-01-02T13:36:46.208Z,15.50
2023-01-02T13:39:27.073Z,15.60
2023-01-02T13:42:23.117Z,15.50
2023-01-02T13:44:57.721Z,15.50
2023-01-02T13:47:35.271Z,15.30
2023-01-02T13:50:24.058Z,15.20
2023-01-02T13:53:11.087Z,15.20
2023-01-02T13:55:41.047Z,15.10
2023-01-02T13:58:20.307Z,15.00
2023-01-02T14:00:55.282Z,14.90
2023-01-02T14:03:23.304Z,14.80
2023-01-02T14:06:00.829Z,14.70
2023-01-02T14:08:35.208Z,14.60
2023-01-02T14:11:27.125Z,14.50
2023-01-02T14:13:55.539Z,14.40
2023-01-02T14:16:25.504Z,14.40
2023-01-02T14:19:14.487Z,14.30
2023-01-02T14:21:47.823Z,14.20
2023-01-02T14:24:34.832Z,14.20
2023-01-02T14:27:05.814Z,14.10
2023-01-02T14:29:43.856Z,14.10
2023-01-02T14:32:35.926Z,14.00
2023-01-02T14:35:04.781Z,14.00
2023-01-02T14:38:10.188Z,14.10
2023-01-02T14:40:42.499Z,13.80
2023-01-02T14:43:32.685Z,13.70
2023-01-02T14:46:24.273Z,13.70
2023-01-02T14:49:25.228Z,13.60
2023-01-02T14:52:00.344Z,13.60
2023-01-02T14:54:33.852Z,13.50
2023-01-02T14:57:32.148Z,13.50
2023-01-02T15:00:11.974Z,13.40
2023-01-02T15:02:41.475Z,13.30
2023-01-02T15:05:20.566Z,13.30
2023-01-02T15:07:51.729Z,13.20
2023-01-02T15:10:23.816Z,13.20
2023-01-02T15:13:03.708Z,13.10
2023-01-02T15:15:53.730Z,13.00
2023-01-02T15:18:33.553Z,13.00
2023-01-02T15:21:09.034Z,12.90
2023-01-02T15:23:36.857Z,12.80
2023-01-02T15:26:33.011Z,12.80
2023-01-02T15:29:18.741Z,12.70
2023-01-02T15:32:00.629Z,12.70
2023-01-02T15:34:33.001Z,12.60
2023-01-02T15:37:07.098Z,12.60
2023-01-02T15:39:41.378Z,12.50
2023-01-02T15:42:40.532Z,12.40
2023-01-02T15:45:16.790Z,12.40
2023-01-02T15:47:49.361Z,12.20
2023-01-02T15:50:24.029Z,12.10
2023-01-02T15:53:00.844Z,12.10
2023-01-02T15:55:33.076Z,11.80
2023-01-02T15:58:00.012Z,11.90
2023-01-02T16:00:35.221Z,11.80
2023-01-02T16:03:03.206Z,11.80
2023-01-02T16:05:43.375Z,11.70
2023-01-02T16:08:20.720Z,11.70
2023-01-02T16:10:51.254Z,11.60
2023-01-02T16:13:41.888Z,11.60
2023-01-02T16:16:15.970Z,11.50
2023-01-02T16:18:48.908Z,11.40
2023-01-02T16:21:17.216Z,11.30
2023-01-02T16:23:54.305Z,11.20
2023-01-02T16:26:25.443Z,11.10
2023-01-02T16:28:52.463Z,11.00
2023-01-02T16:31:21.890Z,10.90
2023-01-02T16:33:49.364Z,10.80
2023-01-02T16:36:16.263Z,10.70
2023-01-02T16:39:02.590Z,10.60
2023-01-02T16:41:40.933Z,10.60
2023-01-02T16:44:12.977Z,10.50
2023-01-02T16:46:44.685Z,10.50
2023-01-02T16:49:23.327Z,10.40
2023-01-02T16:51:54.466Z,10.40
2023-01-02T16:54:21.559Z,10.30
2023-01-02T16:56:49.988Z,10.30
2023-01-02T16:59:17.026Z,10.30
2023-01-02T17:01:44.132Z,10.20
2023-01-02T17:04:15.207Z,10.20
2023-01-02T17:06:42.171Z,10.20
2023-01-02T17:09:09.211Z,10.20
2023-01-02T17:11:38.061Z,10.30
2023-01-02T17:14:05.065Z,10.20
2023-01-02T17:16:32.133Z,10.20
2023-01-02T17:18:59.228Z,10.30
2023-01-02T17:21:32.349Z,10.30
2023-01-02T17:23:59.854Z,10.30
2023-01-02T17:26:26.820Z,10.20
2023-01-02T17:28:53.760Z,10.20
2023-01-02T17:31:25.775Z,10.30
2023-01-02T17:33:53.234Z,10.30
2023-01-02T17:36:20.178Z,10.30
2023-01-02T17:38:47.173Z,10.20
2023-01-02T17:41:14.190Z,10.30
2023-01-02T17:44:01.263Z,10.20
2023-01-02T17:47:04.379Z,10.20
2023-01-02T17:49:17.561Z,10.10
2023-01-02T17:51:44.676Z,10.10
2023-01-02T17:54:12.047Z,10.00
2023-01-02T17:56:39.366Z,10.00
2023-01-02T17:59:07.022Z,10.00
2023-01-02T18:01:34.114Z,10.00
2023-01-02T18:04:01.217Z,10.00
2023-01-02T18:06:28.351Z,10.10
2023-01-02T18:08:55.783Z,10.10
2023-01-02T18:11:23.438Z,10.20
2023-01-02T18:13:54.233Z,10.40
2023-01-02T18:16:29.566Z,10.50
2023-01-02T18:18:56.572Z,10.60
2023-01-02T18:21:28.554Z,10.60
2023-01-02T18:24:02.221Z,10.60
2023-01-02T18:26:31.325Z,10.60
2023-01-02T18:29:09.032Z,10.60
2023-01-02T18:31:44.476Z,10.70
2023-01-02T18:34:48.322Z,10.70
2023-01-02T18:38:16.977Z,10.70
2023-01-02T18:40:43.969Z,10.70
2023-01-02T18:43:37.789Z,10.70
2023-01-02T18:46:24.561Z,10.70
2023-01-02T18:48:53.504Z,10.70
2023-01-02T18:51:23.738Z,10.60
2023-01-02T18:53:53.318Z,10.60
2023-01-02T18:56:24.490Z,10.60
2023-01-02T18:59:14.397Z,10.70
2023-01-02T19:01:50.379Z,10.60
2023-01-02T19:04:28.316Z,10.60
2023-01-02T19:07:01.420Z,10.60
2023-01-02T19:09:35.222Z,10.50
2023-01-02T19:12:35.045Z,10.30
2023-01-02T19:15:22.727Z,10.30
2023-01-02T19:17:49.870Z,10.30
2023-01-02T19:20:17.365Z,10.20
2023-01-02T19:22:44.413Z,10.20
2023-01-02T19:25:19.871Z,10.10
2023-01-02T19:27:46.866Z,10.10
2023-01-02T19:30:30.591Z,10.00
2023-01-02T19:42:02.109Z,9.80
2023-01-02T19:44:29.042Z,9.70
2023-01-02T19:46:56.061Z,9.70
2023-01-02T19:49:23.036Z,9.80
2023-01-02T19:51:51.701Z,9.60
2023-01-02T19:54:18.721Z,9.60
2023-01-02T19:56:45.731Z,9.60
2023-01-02T19:59:13.127Z,9.50
2023-01-02T20:01:41.347Z,9.50
2023-01-02T20:04:08.434Z,9.40
2023-01-02T20:06:36.003Z,9.30
2023-01-02T20:09:03.408Z,9.30
2023-01-02T20:11:49.377Z,9.30
2023-01-02T20:14:16.374Z,9.20
2023-01-02T20:16:43.447Z,9.20
2023-01-02T20:19:10.528Z,9.20
2023-01-02T20:21:37.602Z,9.10
2023-01-02T20:24:04.818Z,9.80
2023-01-02T20:26:32.043Z,9.10
2023-01-02T20:28:59.153Z,9.10
2023-01-02T20:31:26.303Z,9.00
2023-01-02T20:33:54.236Z,9.00
2023-01-02T20:36:21.489Z,9.00
2023-01-02T20:38:48.587Z,9.00
2023-01-02T20:41:15.691Z,9.00
2023-01-02T20:43:42.924Z,8.90
2023-01-02T20:46:10.747Z,8.80
2023-01-02T20:48:37.906Z,8.90
2023-01-02T20:51:05.118Z,8.80
2023-01-02T20:53:32.272Z,8.80
2023-01-02T20:55:59.537Z,8.80
2023-01-02T20:58:26.710Z,8.70
2023-01-02T21:00:53.692Z,8.70
2023-01-02T21:03:22.232Z,8.70
2023-01-02T21:05:49.392Z,8.10
2023-01-02T21:08:16.455Z,8.80
2023-01-02T21:11:09.756Z,8.50
2023-01-02T21:13:36.834Z,8.40
2023-01-02T21:16:03.972Z,9.00
2023-01-02T21:18:36.903Z,8.40
2023-01-02T21:21:06.888Z,8.40
2023-01-02T21:23:38.064Z,8.30
2023-01-02T21:26:07.102Z,8.50
2023-01-02T21:28:34.203Z,9.10
2023-01-02T21:31:01.605Z,9.10
2023-01-02T21:33:29.412Z,8.80
2023-01-02T21:36:02.325Z,9.20
2023-01-02T21:38:30.110Z,8.50
2023-01-02T21:41:20.729Z,8.10
2023-01-02T21:43:47.989Z,8.70
2023-01-02T21:46:15.366Z,8.90
2023-01-02T21:48:42.515Z,9.10
2023-01-02T21:51:09.640Z,8.60
2023-01-02T21:53:36.598Z,8.90
2023-01-02T21:56:04.203Z,8.20
2023-01-02T21:58:31.211Z,7.90
2023-01-02T22:00:58.236Z,8.40
2023-01-02T22:03:25.302Z,9.30
2023-01-02T22:05:53.736Z,9.10
2023-01-02T22:08:20.788Z,8.40
2023-01-02T22:10:49.005Z,8.70
2023-01-02T22:13:16.598Z,8.60
2023-01-02T22:15:45.772Z,8.60
2023-01-02T22:18:13.341Z,8.90
2023-01-02T22:20:40.360Z,8.40
2023-01-02T22:23:07.324Z,8.70
2023-01-02T22:25:34.410Z,9.00
2023-01-02T22:28:01.634Z,7.80
2023-01-02T22:30:34.619Z,9.00
2023-01-02T22:33:02.759Z,8.90
2023-01-02T22:35:29.878Z,7.60
2023-01-02T22:37:59.623Z,7.50
2023-01-02T22:40:28.384Z,7.40
2023-01-02T22:43:00.964Z,7.40
2023-01-02T22:45:31.998Z,7.50
2023-01-02T22:48:01.566Z,7.40
2023-01-02T22:50:31.950Z,7.40
2023-01-02T22:53:00.065Z,7.30
2023-01-02T22:55:27.567Z,7.30
2023-01-02T22:57:54.514Z,7.30
2023-01-02T23:00:23.295Z,7.30
2023-01-02T23:02:50.878Z,7.30
2023-01-02T23:05:20.055Z,7.30
2023-01-02T23:07:49.647Z,7.30
2023-01-02T23:10:16.698Z,7.50
2023-01-02T23:12:43.703Z,7.30
2023-01-02T23:15:14.826Z,7.20
2023-01-02T23:18:01.376Z,7.20
2023-01-02T23:20:28.420Z,7.20
2023-01-02T23:22:55.491Z,7.20
2023-01-02T23:25:22.729Z,7.10
2023-01-02T23:27:49.825Z,7.10
2023-01-02T23:30:17.474Z,7.10
2023-01-02T23:32:44.466Z,7.10
2023-01-02T23:35:11.877Z,7.00
2023-01-02T23:37:38.931Z,7.00
2023-01-02T23:40:06.585Z,7.00
2023-01-02T23:42:33.550Z,6.90
2023-01-02T23:45:00.680Z,6.90
2023-01-02T23:47:27.767Z,7.50
2023-01-02T23:49:54.707Z,6.90
2023-01-02T23:52:21.675Z,7.00
2023-01-02T23:54:48.661Z,7.30
2023-01-02T23:57:15.644Z,7.00
2023-01-02T23:59:44.621Z,7.10
